TimeCST,TemperatureF,Dew PointF,Humidity,Sea Level PressureIn,VisibilityMPH,Wind Direction,Wind SpeedMPH,Gust SpeedMPH,PrecipitationIn,Events,Conditions,WindDirDegrees,DateUTC
12:15 AM,33.8,26.6,75,30.33,10.0,Calm,Calm,-,N/A,,Clear,0,2012-12-05 06:15:00
12:35 AM,33.8,28.4,81,30.33,10.0,Calm,Calm,-,N/A,,Clear,0,2012-12-05 06:35:00
12:55 AM,33.8,28.4,81,30.34,10.0,Calm,Calm,-,N/A,,Clear,0,2012-12-05 06:55:00
1:15 AM,33.8,28.4,81,30.34,10.0,Calm,Calm,-,N/A,,Clear,0,2012-12-05 07:15:00
1:55 AM,32.0,26.6,80,30.34,10.0,WNW,3.5,-,N/A,,Clear,290,2012-12-05 07:55:00
2:15 AM,32.0,28.4,87,30.34,10.0,Calm,Calm,-,N/A,,Clear,0,2012-12-05 08:15:00
2:35 AM,32.0,28.4,87,30.34,10.0,Calm,Calm,-,N/A,,Clear,0,2012-12-05 08:35:00
2:55 AM,32.0,28.4,87,30.33,10.0,Calm,Calm,-,N/A,,Clear,0,2012-12-05 08:55:00
3:15 AM,32.0,28.4,87,30.34,10.0,Calm,Calm,-,N/A,,Clear,0,2012-12-05 09:15:00
3:35 AM,32.0,28.4,87,30.33,10.0,Calm,Calm,-,N/A,,Clear,0,2012-12-05 09:35:00
3:55 AM,32.0,28.4,87,30.33,10.0,Calm,Calm,-,N/A,,Clear,0,2012-12-05 09:55:00
4:15 AM,32.0,28.4,87,30.32,10.0,Calm,Calm,-,N/A,,Clear,0,2012-12-05 10:15:00
4:35 AM,32.0,28.4,87,30.32,10.0,Calm,Calm,-,N/A,,Clear,0,2012-12-05 10:35:00
4:55 AM,32.0,28.4,87,30.32,10.0,NNE,3.5,-,N/A,,Clear,30,2012-12-05 10:55:00
5:15 AM,32.0,28.4,87,30.32,10.0,Calm,Calm,-,N/A,,Clear,0,2012-12-05 11:15:00
5:35 AM,30.2,26.6,86,30.32,10.0,Calm,Calm,-,N/A,,Clear,0,2012-12-05 11:35:00
5:55 AM,32.0,26.6,80,30.32,10.0,Calm,Calm,-,N/A,,Clear,0,2012-12-05 11:55:00
6:15 AM,30.2,26.6,86,30.32,10.0,Calm,Calm,-,N/A,,Clear,0,2012-12-05 12:15:00
6:35 AM,32.0,26.6,80,30.32,10.0,Calm,Calm,-,N/A,,Clear,0,2012-12-05 12:35:00
6:55 AM,30.2,26.6,86,30.32,10.0,Calm,Calm,-,N/A,,Clear,0,2012-12-05 12:55:00
8:35 AM,32.0,30.2,93,30.32,10.0,Calm,Calm,-,N/A,,Clear,0,2012-12-05 14:35:00
8:55 AM,35.6,30.2,81,30.33,10.0,Calm,Calm,-,N/A,,Clear,0,2012-12-05 14:55:00
9:15 AM,37.4,32.0,81,30.33,10.0,Calm,Calm,-,N/A,,Clear,0,2012-12-05 15:15:00
9:35 AM,42.8,32.0,66,30.32,10.0,Calm,Calm,-,N/A,,Clear,0,2012-12-05 15:35:00
9:55 AM,44.6,33.8,66,30.32,10.0,SE,3.5,-,N/A,,Clear,140,2012-12-05 15:55:00
10:15 AM,50.0,33.8,54,30.31,10.0,SSE,5.8,-,N/A,,Clear,150,2012-12-05 16:15:00
10:35 AM,51.8,32.0,47,30.31,10.0,SSE,9.2,-,N/A,,Clear,150,2012-12-05 16:35:00
10:55 AM,53.6,30.2,41,30.30,10.0,SSE,10.4,-,N/A,,Clear,150,2012-12-05 16:55:00
11:15 AM,55.4,30.2,38,30.30,10.0,SSE,8.1,-,N/A,,Clear,160,2012-12-05 17:15:00
11:35 AM,55.4,30.2,38,30.29,10.0,SSE,8.1,-,N/A,,Clear,160,2012-12-05 17:35:00
11:55 AM,57.2,30.2,36,30.27,10.0,SE,11.5,16.1,N/A,,Clear,140,2012-12-05 17:55:00
12:15 PM,59.0,26.6,29,30.26,10.0,SE,11.5,18.4,N/A,,Clear,130,2012-12-05 18:15:00
12:35 PM,60.8,28.4,29,30.23,10.0,SE,12.7,-,N/A,,Clear,140,2012-12-05 18:35:00
12:55 PM,59.0,26.6,29,30.23,10.0,SSE,15.0,18.4,N/A,,Clear,150,2012-12-05 18:55:00
1:15 PM,59.0,24.8,27,30.21,10.0,SSE,11.5,-,N/A,,Clear,160,2012-12-05 19:15:00
1:35 PM,60.8,24.8,25,30.20,10.0,South,12.7,17.3,N/A,,Clear,170,2012-12-05 19:35:00
1:55 PM,60.8,23.0,23,30.19,10.0,SSE,13.8,-,N/A,,Clear,150,2012-12-05 19:55:00
2:15 PM,60.8,24.8,25,30.18,10.0,SE,11.5,17.3,N/A,,Clear,140,2012-12-05 20:15:00
2:35 PM,59.0,26.6,29,30.17,10.0,South,9.2,-,N/A,,Clear,180,2012-12-05 20:35:00
2:55 PM,57.2,28.4,33,30.17,10.0,SSE,5.8,-,N/A,,Clear,160,2012-12-05 20:55:00
3:15 PM,59.0,28.4,31,30.16,10.0,SSE,9.2,-,N/A,,Clear,160,2012-12-05 21:15:00
3:35 PM,59.0,26.6,29,30.15,10.0,SSE,11.5,-,N/A,,Clear,160,2012-12-05 21:35:00
3:55 PM,57.2,26.6,31,30.15,10.0,SE,9.2,-,N/A,,Clear,140,2012-12-05 21:55:00
4:15 PM,55.4,28.4,36,30.13,10.0,SE,10.4,-,N/A,,Clear,140,2012-12-05 22:15:00
4:35 PM,53.6,28.4,38,30.12,10.0,SSE,6.9,-,N/A,,Clear,150,2012-12-05 22:35:00
4:55 PM,51.8,28.4,41,30.12,10.0,SSE,5.8,-,N/A,,Clear,150,2012-12-05 22:55:00
5:15 PM,51.8,28.4,41,30.11,10.0,SSE,4.6,-,N/A,,Clear,160,2012-12-05 23:15:00
5:35 PM,51.8,28.4,41,30.12,10.0,SSE,4.6,-,N/A,,Clear,160,2012-12-05 23:35:00
5:55 PM,50.0,28.4,43,30.11,10.0,Calm,Calm,-,N/A,,Clear,0,2012-12-05 23:55:00
6:15 PM,48.2,28.4,46,30.11,10.0,SE,4.6,-,N/A,,Clear,140,2012-12-06 00:15:00
6:35 PM,50.0,28.4,43,30.10,10.0,SE,3.5,-,N/A,,Clear,140,2012-12-06 00:35:00
6:55 PM,48.2,28.4,46,30.10,10.0,ESE,4.6,-,N/A,,Clear,120,2012-12-06 00:55:00
7:15 PM,44.6,30.2,57,30.08,10.0,ESE,5.8,-,N/A,,Clear,120,2012-12-06 01:15:00
7:35 PM,44.6,30.2,57,30.08,10.0,ESE,8.1,-,N/A,,Clear,120,2012-12-06 01:35:00
7:55 PM,44.6,30.2,57,30.08,10.0,SE,6.9,-,N/A,,Clear,140,2012-12-06 01:55:00
8:15 PM,42.8,30.2,61,30.07,10.0,SSE,4.6,-,N/A,,Clear,160,2012-12-06 02:15:00
8:35 PM,42.8,30.2,61,30.07,10.0,Calm,Calm,-,N/A,,Clear,0,2012-12-06 02:35:00
8:55 PM,42.8,28.4,57,30.07,10.0,Calm,Calm,-,N/A,,Clear,0,2012-12-06 02:55:00
9:15 PM,41.0,28.4,61,30.07,10.0,South,4.6,-,N/A,,Clear,180,2012-12-06 03:15:00
9:35 PM,41.0,30.2,65,30.06,10.0,South,3.5,-,N/A,,Clear,180,2012-12-06 03:35:00
9:55 PM,41.0,30.2,65,30.05,10.0,ESE,4.6,-,N/A,,Clear,120,2012-12-06 03:55:00
10:15 PM,41.0,30.2,65,30.05,10.0,Calm,Calm,-,N/A,,Clear,0,2012-12-06 04:15:00
10:35 PM,41.0,28.4,61,30.04,10.0,Calm,Calm,-,N/A,,Clear,0,2012-12-06 04:35:00
10:55 PM,41.0,30.2,65,30.03,10.0,Calm,Calm,-,N/A,,Clear,0,2012-12-06 04:55:00
11:15 PM,41.0,28.4,61,30.03,10.0,South,3.5,-,N/A,,Clear,180,2012-12-06 05:15:00
11:35 PM,41.0,28.4,61,30.03,10.0,Calm,Calm,-,N/A,,Clear,0,2012-12-06 05:35:00
11:55 PM,41.0,30.2,65,30.03,10.0,Calm,Calm,-,N/A,,Clear,0,2012-12-06 05:55:00